Time;durP1;ratioP1;P1;durP2;ratioP2;P2;SDS_P1;SDS_P2;PMS_P1;PMS_P2;Temp;Humidity;BMP_temperature;BMP_pressure;BME280_temperature;BME280_humidity;BME280_pressure;Samples;Min_cycle;Max_cycle;Signal;HPM_P1;HPM_P2
2022/09/19 00:02:02;;;;;;;0.70;0.50;;;8.70;99.90;;;;;;4938473;29;20610;-79
2022/09/19 00:04:30;;;;;;;1.65;0.50;;;8.70;99.90;;;;;;4934641;29;20628;-81
2022/09/19 00:06:57;;;;;;;0.52;0.50;;;8.70;99.90;;;;;;4937418;29;20214;-81
2022/09/19 00:09:27;;;;;;;0.57;0.57;;;8.70;99.90;;;;;;4939668;29;20228;-80
2022/09/19 00:11:56;;;;;;;0.40;0.40;;;8.80;99.90;;;;;;4937907;29;20233;-81
2022/09/19 00:14:26;;;;;;;0.45;0.45;;;8.70;99.90;;;;;;4959480;29;20252;-81
2022/09/19 00:16:56;;;;;;;0.88;0.50;;;8.70;99.90;;;;;;4951553;29;20215;-81
2022/09/19 00:19:23;;;;;;;0.52;0.40;;;8.60;99.90;;;;;;4959318;29;20221;-81
2022/09/19 00:21:54;;;;;;;0.50;0.50;;;8.60;99.90;;;;;;4953531;29;20225;-82
2022/09/19 00:27:09;;;;;;;0.40;0.40;;;8.60;99.90;;;;;;4938298;29;20236;-81
2022/09/19 00:29:38;;;;;;;0.93;0.45;;;8.50;99.90;;;;;;4956030;29;20773;-82
2022/09/19 00:32:07;;;;;;;0.50;0.50;;;8.50;99.90;;;;;;4945744;29;20769;-82
2022/09/19 00:34:35;;;;;;;0.47;0.30;;;8.50;99.90;;;;;;4955399;28;20201;-80
2022/09/19 00:37:01;;;;;;;0.50;0.50;;;8.40;99.90;;;;;;4949733;29;20213;-83
2022/09/19 00:39:28;;;;;;;0.63;0.30;;;8.40;99.90;;;;;;4954476;29;20270;-83
2022/09/19 00:41:55;;;;;;;0.30;0.30;;;8.40;99.90;;;;;;4951310;29;20249;-82
2022/09/19 00:44:56;;;;;;;0.20;0.20;;;8.40;99.90;;;;;;4954569;28;20201;-83
2022/09/19 00:47:29;;;;;;;0.40;0.40;;;8.40;99.90;;;;;;4955153;29;20207;-82
2022/09/19 00:49:59;;;;;;;0.30;0.30;;;8.40;99.90;;;;;;4939611;29;20201;-83
2022/09/19 00:52:32;;;;;;;0.45;0.45;;;8.40;99.90;;;;;;4956232;29;20236;-83
2022/09/19 00:54:59;;;;;;;2.15;0.40;;;8.40;99.90;;;;;;4954449;28;20284;-82
2022/09/19 00:57:36;;;;;;;0.38;0.38;;;8.30;99.90;;;;;;4950739;28;20205;-83
2022/09/19 01:00:06;;;;;;;0.30;0.30;;;8.30;99.90;;;;;;4953629;29;20284;-83
2022/09/19 01:02:33;;;;;;;0.45;0.45;;;8.20;99.90;;;;;;4939741;29;20228;-83
2022/09/19 01:05:03;;;;;;;0.30;0.30;;;8.30;99.90;;;;;;4938123;29;20210;-83
2022/09/19 01:07:43;;;;;;;0.65;0.50;;;8.30;99.90;;;;;;4925914;29;20300;-81
2022/09/19 01:10:21;;;;;;;0.80;0.50;;;8.40;99.90;;;;;;4922494;29;20210;-81
2022/09/19 01:12:57;;;;;;;0.50;0.40;;;8.40;99.90;;;;;;4938758;29;20233;-83
2022/09/19 01:15:36;;;;;;;0.40;0.40;;;8.40;99.90;;;;;;4941474;29;20730;-82
2022/09/19 01:18:04;;;;;;;0.40;0.40;;;8.40;99.90;;;;;;4932802;29;20543;-83
2022/09/19 01:21:37;;;;;;;0.40;0.40;;;8.30;99.90;;;;;;4941319;29;20581;-83
2022/09/19 01:24:34;;;;;;;1.58;0.40;;;8.20;99.90;;;;;;4921223;29;20286;-82
2022/09/19 01:27:23;;;;;;;0.60;0.60;;;8.10;99.90;;;;;;4922344;29;20688;-83
2022/09/19 01:29:59;;;;;;;0.45;0.45;;;8.00;99.90;;;;;;4929975;29;20203;-82
2022/09/19 01:32:33;;;;;;;3.50;0.60;;;7.80;99.90;;;;;;4941736;29;20240;-83
2022/09/19 01:35:03;;;;;;;0.90;0.57;;;7.80;99.90;;;;;;4938340;29;20561;-83
2022/09/19 01:37:36;;;;;;;0.30;0.30;;;7.80;99.90;;;;;;4939627;29;20211;-80
2022/09/19 01:40:05;;;;;;;0.63;0.63;;;7.80;99.90;;;;;;4960266;29;20616;-82
2022/09/19 01:42:32;;;;;;;1.70;0.82;;;7.80;99.90;;;;;;4958220;29;20236;-83
2022/09/19 01:45:00;;;;;;;0.70;0.50;;;7.80;99.90;;;;;;4924104;29;20207;-83
2022/09/19 01:47:34;;;;;;;0.35;0.35;;;7.80;99.90;;;;;;4932986;29;20208;-82
2022/09/19 01:50:07;;;;;;;0.43;0.40;;;7.60;99.90;;;;;;4941375;29;20216;-83
2022/09/19 01:52:48;;;;;;;0.50;0.50;;;7.60;99.90;;;;;;4938548;29;20226;-84
2022/09/19 01:55:23;;;;;;;1.65;0.52;;;7.50;99.90;;;;;;4940829;29;20697;-82
2022/09/19 01:57:57;;;;;;;0.30;0.30;;;7.50;99.90;;;;;;4939918;29;20596;-82
2022/09/19 02:00:27;;;;;;;0.73;0.73;;;7.50;99.90;;;;;;4940780;29;20226;-84
2022/09/19 02:03:06;;;;;;;0.85;0.85;;;7.50;99.90;;;;;;4934986;29;20217;-83
2022/09/19 02:05:41;;;;;;;1.02;0.70;;;7.60;99.90;;;;;;4933488;29;20664;-83
2022/09/19 02:08:15;;;;;;;0.60;0.60;;;7.60;99.90;;;;;;4923151;29;20202;-83
2022/09/19 02:10:46;;;;;;;3.22;1.00;;;7.60;99.90;;;;;;4921183;29;20210;-82
2022/09/19 02:13:15;;;;;;;0.60;0.60;;;7.60;99.90;;;;;;4929203;29;20214;-84
2022/09/19 02:15:48;;;;;;;0.85;0.80;;;7.60;99.90;;;;;;4940603;29;20680;-83
2022/09/19 02:18:22;;;;;;;1.50;1.40;;;7.70;99.90;;;;;;4932831;29;20226;-82
2022/09/19 02:20:52;;;;;;;0.88;0.88;;;7.70;99.90;;;;;;4921429;29;20202;-83
2022/09/19 02:23:24;;;;;;;0.80;0.80;;;7.70;99.90;;;;;;4928074;29;20213;-84
2022/09/19 02:25:52;;;;;;;1.48;0.85;;;7.70;99.90;;;;;;4940736;29;20648;-83
2022/09/19 02:28:24;;;;;;;0.85;0.85;;;7.70;99.90;;;;;;4935455;29;20707;-83
2022/09/19 02:30:52;;;;;;;1.13;1.02;;;7.80;99.90;;;;;;4940102;29;20248;-82
2022/09/19 02:33:19;;;;;;;0.93;0.93;;;7.70;99.90;;;;;;4938941;29;20209;-84
2022/09/19 02:35:50;;;;;;;2.15;1.45;;;7.70;99.90;;;;;;4940592;29;20218;-81
2022/09/19 02:38:24;;;;;;;1.20;0.85;;;7.70;99.90;;;;;;4929221;29;20217;-84
2022/09/19 02:40:59;;;;;;;1.40;1.30;;;7.80;99.90;;;;;;4922768;29;20230;-84
2022/09/19 02:43:36;;;;;;;1.20;1.10;;;7.80;99.90;;;;;;4932680;29;20209;-83
2022/09/19 02:46:09;;;;;;;2.47;1.38;;;7.70;99.90;;;;;;4932268;29;20206;-83
2022/09/19 02:48:48;;;;;;;1.00;1.00;;;7.70;99.90;;;;;;4936344;29;20209;-84
2022/09/19 02:51:20;;;;;;;1.30;1.20;;;7.70;99.90;;;;;;4939995;29;20232;-84
2022/09/19 02:53:51;;;;;;;1.35;1.10;;;7.70;99.90;;;;;;4938459;29;20217;-81
2022/09/19 02:56:27;;;;;;;0.90;0.90;;;7.70;99.90;;;;;;4930959;29;20217;-83
2022/09/19 02:58:57;;;;;;;1.27;0.93;;;7.70;99.90;;;;;;4934381;29;20240;-83
2022/09/19 03:01:29;;;;;;;1.40;1.30;;;7.70;99.90;;;;;;4930838;29;20226;-83
2022/09/19 03:04:13;;;;;;;1.33;1.25;;;7.70;99.90;;;;;;4920877;29;20612;-83
2022/09/19 03:06:45;;;;;;;1.23;1.00;;;7.70;99.90;;;;;;4930602;29;20206;-81
2022/09/19 03:09:15;;;;;;;1.45;1.20;;;7.70;99.90;;;;;;4932255;29;20230;-82
2022/09/19 03:11:46;;;;;;;0.93;0.90;;;7.60;99.90;;;;;;4931979;29;20233;-83
2022/09/19 03:14:13;;;;;;;1.27;1.20;;;7.60;99.90;;;;;;4932586;29;20238;-82
2022/09/19 03:16:45;;;;;;;1.13;1.05;;;7.60;99.90;;;;;;4939285;29;20213;-81
2022/09/19 03:19:12;;;;;;;2.13;1.75;;;7.60;99.90;;;;;;4932639;29;20602;-82
2022/09/19 03:21:40;;;;;;;3.60;1.50;;;7.60;99.90;;;;;;4919927;29;20249;-84
2022/09/19 03:24:08;;;;;;;1.25;1.15;;;7.50;99.90;;;;;;4919926;29;20207;-82
2022/09/19 03:26:37;;;;;;;1.13;1.13;;;7.50;99.90;;;;;;4937769;29;20213;-84
2022/09/19 03:29:05;;;;;;;1.60;1.42;;;7.50;99.90;;;;;;4925337;29;20219;-80
2022/09/19 03:31:32;;;;;;;0.98;0.98;;;7.50;99.90;;;;;;4919176;29;20238;-82
2022/09/19 03:34:00;;;;;;;2.92;1.60;;;7.50;99.90;;;;;;4931119;29;20208;-83
2022/09/19 03:36:28;;;;;;;1.60;1.50;;;7.50;99.90;;;;;;4939010;29;20465;-84
2022/09/19 03:39:01;;;;;;;1.60;1.50;;;7.50;99.90;;;;;;4930206;29;20232;-83
2022/09/19 03:41:31;;;;;;;2.00;1.40;;;7.50;99.90;;;;;;4923523;29;20231;-81
2022/09/19 03:44:01;;;;;;;1.70;1.60;;;7.50;99.90;;;;;;4929664;29;20210;-81
2022/09/19 03:46:30;;;;;;;1.92;1.77;;;7.50;99.90;;;;;;4935826;29;20206;-81
2022/09/19 03:48:58;;;;;;;7.95;1.98;;;7.50;99.90;;;;;;4928075;29;20210;-82
2022/09/19 03:51:26;;;;;;;2.10;1.35;;;7.50;99.90;;;;;;4919738;29;20671;-83
2022/09/19 03:53:52;;;;;;;2.78;2.47;;;7.50;99.90;;;;;;4919451;29;20672;-83
2022/09/19 03:56:19;;;;;;;2.63;1.27;;;7.50;99.90;;;;;;4920316;29;20206;-83
2022/09/19 03:58:46;;;;;;;2.67;1.25;;;7.50;99.90;;;;;;4919848;29;20210;-82
2022/09/19 04:01:15;;;;;;;3.13;1.50;;;7.60;99.90;;;;;;4932509;29;20229;-84
2022/09/19 04:03:43;;;;;;;1.15;1.15;;;7.60;99.90;;;;;;4939260;29;20800;-84
2022/09/19 04:06:10;;;;;;;1.60;1.50;;;7.60;99.90;;;;;;4926557;29;20218;-83
2022/09/19 04:08:38;;;;;;;1.70;1.58;;;7.70;99.90;;;;;;4920053;29;20214;-83
2022/09/19 04:11:08;;;;;;;1.90;1.80;;;7.70;99.90;;;;;;4954053;23;20236;-85
2022/09/19 04:13:37;;;;;;;2.15;0.95;;;7.80;99.90;;;;;;4935191;29;20216;-85
2022/09/19 04:16:05;;;;;;;1.50;1.40;;;7.80;99.90;;;;;;4935069;29;20208;-85
2022/09/19 04:18:33;;;;;;;1.65;1.35;;;7.80;99.90;;;;;;4935265;29;20217;-85
2022/09/19 04:21:00;;;;;;;2.28;1.30;;;7.80;99.90;;;;;;4934818;29;20261;-86
2022/09/19 04:23:27;;;;;;;2.90;1.33;;;7.80;99.90;;;;;;4917203;29;20210;-86
2022/09/19 04:25:55;;;;;;;1.35;1.35;;;7.90;99.90;;;;;;4918970;29;20213;-86
2022/09/19 04:28:23;;;;;;;2.20;1.40;;;7.90;99.90;;;;;;4918355;29;20211;-86
2022/09/19 04:30:49;;;;;;;6.68;1.73;;;7.90;99.90;;;;;;4918924;29;20655;-86
2022/09/19 04:33:17;;;;;;;1.80;1.42;;;7.90;99.90;;;;;;4918375;29;20223;-86
2022/09/19 04:35:45;;;;;;;2.10;0.98;;;8.00;99.90;;;;;;4917687;29;20214;-86
2022/09/19 04:38:17;;;;;;;3.00;2.00;;;7.90;99.90;;;;;;4916705;29;20218;-86
2022/09/19 04:40:46;;;;;;;4.00;1.00;;;8.00;99.90;;;;;;4916059;29;20214;-86
2022/09/19 04:43:16;;;;;;;3.03;1.10;;;8.10;99.90;;;;;;4916419;29;20230;-86
2022/09/19 04:45:46;;;;;;;5.38;2.28;;;8.10;99.90;;;;;;4916215;29;20210;-86
2022/09/19 04:48:13;;;;;;;1.52;1.42;;;8.10;99.90;;;;;;4916796;29;20616;-86
2022/09/19 04:50:42;;;;;;;5.72;2.35;;;8.10;99.90;;;;;;4916382;29;20214;-86
2022/09/19 04:53:13;;;;;;;1.83;1.20;;;8.20;99.90;;;;;;4916595;29;20235;-86
2022/09/19 04:55:41;;;;;;;4.05;1.30;;;8.20;99.90;;;;;;4916090;29;20195;-86
2022/09/19 04:58:07;;;;;;;3.95;1.48;;;8.20;99.90;;;;;;4915903;29;20265;-87
2022/09/19 05:00:38;;;;;;;1.13;1.00;;;8.20;99.90;;;;;;4916062;29;20246;-86
2022/09/19 05:03:07;;;;;;;3.80;2.00;;;8.30;99.90;;;;;;4916378;29;20222;-86
2022/09/19 05:05:35;;;;;;;5.32;1.63;;;8.30;99.90;;;;;;4916020;29;20214;-86
2022/09/19 05:08:03;;;;;;;1.50;1.40;;;8.30;99.90;;;;;;4916027;29;20305;-86
2022/09/19 05:10:31;;;;;;;6.32;1.30;;;8.30;99.90;;;;;;4915916;29;20202;-86
2022/09/19 05:12:58;;;;;;;3.72;1.45;;;8.30;99.90;;;;;;4915611;29;20238;-86
2022/09/19 05:15:25;;;;;;;3.03;1.30;;;8.40;99.90;;;;;;4915814;29;20211;-86
2022/09/19 05:17:53;;;;;;;4.80;1.20;;;8.40;99.90;;;;;;4916204;29;20291;-86
2022/09/19 05:20:20;;;;;;;3.90;1.33;;;8.50;99.90;;;;;;4915873;29;20246;-86
2022/09/19 05:22:47;;;;;;;3.78;1.80;;;8.50;99.90;;;;;;4915763;29;20236;-87
2022/09/19 05:25:15;;;;;;;4.80;1.17;;;8.50;99.90;;;;;;4915877;29;20216;-86
2022/09/19 05:27:42;;;;;;;1.90;0.90;;;8.50;99.90;;;;;;4915819;29;20213;-87
2022/09/19 05:30:11;;;;;;;1.42;1.33;;;8.60;99.90;;;;;;4915586;29;20203;-86
2022/09/19 05:32:44;;;;;;;10.18;1.80;;;8.50;99.90;;;;;;4915540;29;20267;-87
2022/09/19 05:35:13;;;;;;;2.60;1.40;;;8.50;99.90;;;;;;4915676;29;20198;-86
2022/09/19 05:37:41;;;;;;;1.45;1.35;;;8.60;99.90;;;;;;4915553;29;20206;-87
2022/09/19 05:40:10;;;;;;;5.45;2.33;;;8.60;99.90;;;;;;4915170;29;20226;-87
2022/09/19 05:42:41;;;;;;;1.70;1.50;;;8.60;99.90;;;;;;4915504;29;20243;-87
2022/09/19 05:45:09;;;;;;;1.48;1.15;;;8.60;99.90;;;;;;4915965;29;20255;-86
2022/09/19 05:47:38;;;;;;;4.90;2.45;;;8.60;99.90;;;;;;4930425;29;20203;-87
2022/09/19 05:50:07;;;;;;;2.00;1.80;;;8.70;99.90;;;;;;4933986;29;20194;-87
2022/09/19 05:55:20;;;;;;;1.30;1.20;;;8.70;99.90;;;;;;4918788;29;20238;-87
2022/09/19 05:57:51;;;;;;;2.15;1.45;;;8.70;99.90;;;;;;4918665;29;20234;-87
2022/09/19 06:00:18;;;;;;;5.38;1.80;;;8.80;99.90;;;;;;4921748;29;20553;-87
2022/09/19 06:02:53;;;;;;;3.67;2.08;;;8.80;99.90;;;;;;4933290;29;20226;-86
2022/09/19 06:05:20;;;;;;;5.05;1.63;;;8.80;99.90;;;;;;4928873;29;20249;-86
2022/09/19 06:07:48;;;;;;;3.40;1.50;;;8.90;99.90;;;;;;4926641;29;20225;-85
2022/09/19 06:10:26;;;;;;;1.48;1.40;;;8.90;99.90;;;;;;4927163;29;20235;-85
2022/09/19 06:12:54;;;;;;;3.53;2.03;;;9.00;99.90;;;;;;4928795;29;20238;-84
2022/09/19 06:15:21;;;;;;;3.17;1.50;;;9.00;99.90;;;;;;4926697;29;20202;-86
2022/09/19 06:24:18;;;;;;;2.65;1.42;;;9.30;99.90;;;;;;4913218;29;20201;-86
2022/09/19 06:26:59;;;;;;;5.88;1.67;;;9.30;99.90;;;;;;4918935;29;20245;-85
2022/09/19 06:29:26;;;;;;;2.20;1.92;;;9.30;99.90;;;;;;4918017;29;20205;-86
2022/09/19 06:31:52;;;;;;;4.75;1.80;;;9.30;99.90;;;;;;4918604;29;20597;-84
2022/09/19 06:34:19;;;;;;;1.58;1.48;;;9.30;99.90;;;;;;4918265;29;20203;-84
2022/09/19 06:36:47;;;;;;;3.67;1.48;;;9.40;99.90;;;;;;4919940;29;20221;-84
2022/09/19 06:39:14;;;;;;;1.65;1.55;;;9.50;99.90;;;;;;4921830;29;20239;-84
2022/09/19 06:41:40;;;;;;;5.35;1.50;;;9.50;99.90;;;;;;4920779;29;20423;-84
2022/09/19 06:44:09;;;;;;;5.38;2.10;;;9.60;99.90;;;;;;4919300;29;20218;-83
2022/09/19 06:46:37;;;;;;;3.20;1.83;;;9.60;99.90;;;;;;4918986;29;20203;-83
2022/09/19 06:49:07;;;;;;;2.40;1.40;;;9.70;99.90;;;;;;4918506;29;20593;-84
2022/09/19 06:51:34;;;;;;;2.55;2.05;;;9.70;99.90;;;;;;4921471;29;20649;-83
2022/09/19 06:54:36;;;;;;;3.50;2.15;;;9.80;99.90;;;;;;4921350;29;20213;-85
2022/09/19 06:57:20;;;;;;;5.13;1.80;;;9.80;99.90;;;;;;4920676;29;20215;-84
2022/09/19 07:00:38;;;;;;;3.75;2.22;;;9.90;99.90;;;;;;4915824;29;20232;-85
2022/09/19 07:03:26;;;;;;;2.20;2.08;;;9.90;99.90;;;;;;4929137;29;20266;-84
2022/09/19 07:06:03;;;;;;;3.85;2.45;;;9.90;99.90;;;;;;4929994;29;20204;-85
2022/09/19 07:14:33;;;;;;;3.45;1.60;;;9.90;99.90;;;;;;4916982;29;20551;-85
2022/09/19 07:17:08;;;;;;;1.90;1.27;;;10.10;99.90;;;;;;4916694;29;20219;-84
2022/09/19 07:42:37;;;;;;;4.47;2.10;;;10.50;99.90;;;;;;4766890;29;20310;-83
2022/09/19 07:48:34;;;;;;;3.63;1.47;;;10.60;99.90;;;;;;4870546;29;20804;-86
2022/09/19 07:54:47;;;;;;;3.45;2.60;;;10.70;99.90;;;;;;4891977;29;20497;-88
2022/09/19 07:57:16;;;;;;;6.97;2.07;;;10.80;99.90;;;;;;4884388;29;20214;-86
2022/09/19 08:06:30;;;;;;;4.93;1.80;;;11.10;99.90;;;;;;4903855;29;20493;-87
2022/09/19 08:09:36;;;;;;;4.13;2.10;;;11.10;99.90;;;;;;4914332;29;20994;-86
2022/09/19 08:12:04;;;;;;;3.13;2.20;;;11.10;99.90;;;;;;4913734;29;20557;-86
2022/09/19 08:14:31;;;;;;;4.20;1.70;;;11.10;99.90;;;;;;4915246;29;20458;-87
2022/09/19 08:17:02;;;;;;;5.03;2.30;;;11.20;99.90;;;;;;4914373;29;20561;-86
2022/09/19 08:19:31;;;;;;;4.50;2.77;;;11.30;99.90;;;;;;4914840;29;20461;-87
2022/09/19 08:24:47;;;;;;;1.67;1.57;;;11.40;99.90;;;;;;4914190;29;20492;-87
2022/09/19 08:27:16;;;;;;;6.57;1.90;;;11.40;99.90;;;;;;4915378;29;21053;-88
2022/09/19 08:29:43;;;;;;;4.53;2.80;;;11.50;99.90;;;;;;4914744;29;20457;-87
2022/09/19 08:32:12;;;;;;;3.63;1.50;;;11.60;99.90;;;;;;4914855;29;20567;-86
2022/09/19 08:34:38;;;;;;;3.77;1.90;;;11.70;99.90;;;;;;4915055;29;20450;-86
2022/09/19 08:37:06;;;;;;;5.00;1.80;;;11.80;99.90;;;;;;4922018;29;20468;-84
2022/09/19 08:39:33;;;;;;;5.23;2.20;;;11.80;99.90;;;;;;4919949;29;20456;-84
2022/09/19 08:42:20;;;;;;;4.03;1.70;;;11.90;99.90;;;;;;4915627;29;20581;-89
2022/09/19 08:44:59;;;;;;;6.00;2.00;;;12.10;99.90;;;;;;4921549;29;20467;-86
2022/09/19 08:47:32;;;;;;;4.50;2.00;;;12.20;99.90;;;;;;4932881;29;20462;-89
2022/09/19 08:50:05;;;;;;;2.57;2.37;;;12.20;99.90;;;;;;4927409;29;20571;-89
2022/09/19 08:52:37;;;;;;;5.87;2.67;;;12.20;99.90;;;;;;4915926;29;20500;-86
2022/09/19 08:55:07;;;;;;;6.90;3.90;;;12.30;99.90;;;;;;4916021;29;20512;-88
2022/09/19 08:57:37;;;;;;;5.03;2.30;;;12.10;99.90;;;;;;4915288;29;20971;-86
2022/09/19 09:00:07;;;;;;;3.80;2.00;;;12.10;99.90;;;;;;4915463;29;20828;-88
2022/09/19 09:02:43;;;;;;;7.23;2.40;;;12.20;99.90;;;;;;4919006;29;20504;-89
2022/09/19 09:05:14;;;;;;;5.80;2.40;;;12.30;99.90;;;;;;4934408;29;20488;-89
2022/09/19 09:07:51;;;;;;;4.40;2.30;;;12.40;99.90;;;;;;4922429;29;20964;-90
2022/09/19 09:10:31;;;;;;;3.93;2.20;;;12.50;99.90;;;;;;4915284;29;20468;-88
2022/09/19 09:16:03;;;;;;;5.63;2.47;;;12.40;99.90;;;;;;4937245;29;20465;-81
2022/09/19 09:29:17;;;;;;;6.17;1.90;;;12.60;99.90;;;;;;4792957;29;20474;-82
2022/09/19 09:31:51;;;;;;;2.33;1.63;;;12.60;99.90;;;;;;4840059;29;20469;-82
2022/09/19 09:48:30;;;;;;;2.80;2.00;;;13.00;99.90;;;;;;4782419;30;20440;-84
2022/09/19 09:51:23;;;;;;;6.37;2.00;;;13.10;99.90;;;;;;4895137;29;20470;-83
2022/09/19 09:56:14;;;;;;;2.83;1.90;;;13.10;99.90;;;;;;4918775;29;20944;-85
2022/09/19 09:57:07;;;;;;;2.00;1.90;;;13.00;99.90;;;;;;4920675;29;20461;-84
2022/09/19 10:05:33;;;;;;;4.07;3.13;;;13.00;99.90;;;;;;4887229;29;20443;-83
2022/09/19 10:08:31;;;;;;;2.10;1.83;;;13.00;99.90;;;;;;4922442;29;20457;-87
2022/09/19 10:14:29;;;;;;;2.93;1.53;;;12.90;99.90;;;;;;4947791;23;20487;-81
2022/09/19 10:17:01;;;;;;;3.60;3.30;;;12.90;99.90;;;;;;4960501;29;20457;-82
2022/09/19 10:19:34;;;;;;;4.03;2.10;;;12.80;99.90;;;;;;4960515;29;20976;-81
2022/09/19 10:22:01;;;;;;;2.03;1.60;;;12.90;99.90;;;;;;4960872;28;20496;-81
2022/09/19 10:24:50;;;;;;;2.33;1.60;;;13.00;99.90;;;;;;4951352;28;20472;-82
2022/09/19 10:27:22;;;;;;;3.03;1.90;;;13.10;99.90;;;;;;4944010;29;20943;-82
2022/09/19 10:29:56;;;;;;;2.43;2.17;;;13.20;99.90;;;;;;4944195;29;20461;-82
2022/09/19 10:32:24;;;;;;;2.87;2.60;;;13.40;99.90;;;;;;4943483;29;20556;-82
2022/09/19 10:34:52;;;;;;;6.30;2.10;;;13.70;99.90;;;;;;4944378;29;20499;-82
2022/09/19 10:37:22;;;;;;;1.30;1.27;;;13.80;99.90;;;;;;4943186;29;21006;-82
2022/09/19 10:39:50;;;;;;;1.93;1.60;;;14.00;99.90;;;;;;4942971;29;20465;-82
2022/09/19 10:42:34;;;;;;;4.90;1.60;;;14.00;99.90;;;;;;4944511;29;20545;-82
2022/09/19 10:45:07;;;;;;;5.57;2.67;;;14.10;99.90;;;;;;4943986;29;20525;-82
2022/09/19 10:47:37;;;;;;;1.87;1.37;;;14.20;99.90;;;;;;4943850;29;20454;-81
2022/09/19 10:50:06;;;;;;;1.17;1.17;;;14.50;99.90;;;;;;4944115;29;20984;-82
2022/09/19 10:52:33;;;;;;;2.73;2.47;;;14.80;99.90;;;;;;4944460;29;20461;-82
2022/09/19 10:55:02;;;;;;;2.60;1.27;;;15.00;99.90;;;;;;4944126;29;20458;-82
2022/09/19 10:57:44;;;;;;;2.93;1.23;;;15.20;99.90;;;;;;4953972;29;20462;-82
2022/09/19 11:00:24;;;;;;;3.07;1.50;;;15.30;99.90;;;;;;4943742;29;20497;-82
2022/09/19 11:03:01;;;;;;;5.87;1.90;;;15.40;99.90;;;;;;4944442;29;20494;-82
2022/09/19 11:05:31;;;;;;;2.13;1.53;;;15.20;99.90;;;;;;4945030;29;20480;-82
2022/09/19 11:07:59;;;;;;;1.83;1.67;;;14.80;99.90;;;;;;4944699;29;20456;-82
2022/09/19 11:10:39;;;;;;;1.30;1.20;;;14.50;99.90;;;;;;4943814;29;20454;-82
2022/09/19 11:13:08;;;;;;;3.60;1.37;;;14.30;99.90;;;;;;4943622;29;20991;-82
2022/09/19 11:15:43;;;;;;;2.77;1.30;;;14.30;99.90;;;;;;4944054;29;20548;-82
2022/09/19 11:18:16;;;;;;;2.77;1.20;;;14.50;99.90;;;;;;4944106;29;20460;-82
2022/09/19 11:20:52;;;;;;;1.57;1.20;;;14.80;99.90;;;;;;4944657;29;20466;-82
2022/09/19 11:23:36;;;;;;;1.50;1.20;;;15.20;99.90;;;;;;4943817;29;20465;-82
2022/09/19 11:26:17;;;;;;;3.20;1.30;;;15.60;99.90;;;;;;4944293;29;20960;-81
2022/09/19 11:28:54;;;;;;;3.60;1.47;;;15.80;99.90;;;;;;4944481;29;20489;-82
2022/09/19 11:31:42;;;;;;;1.93;1.40;;;15.90;99.90;;;;;;4943944;29;20456;-82
2022/09/19 11:34:18;;;;;;;6.60;1.60;;;15.70;99.90;;;;;;4944215;29;20548;-82
2022/09/19 11:36:59;;;;;;;1.40;1.30;;;15.40;99.90;;;;;;4943613;29;20450;-82
2022/09/19 11:39:37;;;;;;;1.63;1.00;;;15.30;99.90;;;;;;4943339;29;20810;-82
2022/09/19 11:42:20;;;;;;;1.27;1.00;;;15.40;99.90;;;;;;4943512;29;20504;-82
2022/09/19 11:44:56;;;;;;;1.67;0.90;;;15.40;99.90;;;;;;4943051;29;20485;-82
2022/09/19 11:47:44;;;;;;;1.50;0.80;;;15.30;99.90;;;;;;4943915;29;20442;-82
2022/09/19 11:50:36;;;;;;;1.40;1.13;;;15.20;99.90;;;;;;4943617;29;20457;-82
2022/09/19 11:53:21;;;;;;;1.23;0.90;;;15.00;99.90;;;;;;4933375;29;20823;-82
2022/09/19 11:55:55;;;;;;;4.33;1.67;;;14.80;99.90;;;;;;4943577;29;20438;-82
2022/09/19 11:58:32;;;;;;;2.37;1.07;;;14.70;99.90;;;;;;4942954;29;20464;-82
2022/09/19 12:01:09;;;;;;;1.80;1.20;;;14.60;99.90;;;;;;4942897;29;20461;-82
2022/09/19 12:03:52;;;;;;;2.33;1.27;;;14.40;99.90;;;;;;4943297;29;20473;-82
2022/09/19 12:06:34;;;;;;;1.00;0.90;;;14.30;99.90;;;;;;4942731;29;20461;-84
2022/09/19 12:09:17;;;;;;;2.73;1.10;;;14.10;99.90;;;;;;4941861;29;20970;-84
2022/09/19 12:11:50;;;;;;;1.70;1.60;;;14.10;99.90;;;;;;4941563;29;20490;-84
2022/09/19 12:14:25;;;;;;;4.33;1.20;;;14.10;99.90;;;;;;4941290;29;20583;-84
2022/09/19 12:16:56;;;;;;;4.33;1.27;;;14.00;99.90;;;;;;4940676;29;20534;-84
2022/09/19 12:19:26;;;;;;;2.43;1.23;;;14.10;99.90;;;;;;4940935;29;20457;-84
2022/09/19 12:21:57;;;;;;;0.93;0.93;;;14.10;99.90;;;;;;4941004;29;20491;-84
2022/09/19 12:27:17;;;;;;;3.90;1.43;;;14.10;99.90;;;;;;4941078;29;20448;-84
2022/09/19 12:29:50;;;;;;;2.27;1.33;;;14.10;99.90;;;;;;4940630;29;20453;-84
2022/09/19 12:32:26;;;;;;;2.70;2.30;;;14.10;99.90;;;;;;4941420;29;20435;-84
2022/09/19 12:35:01;;;;;;;1.47;1.20;;;14.20;99.90;;;;;;4941687;29;20457;-84
2022/09/19 12:37:36;;;;;;;2.37;1.33;;;14.40;99.90;;;;;;4940669;29;20460;-83
2022/09/19 12:40:15;;;;;;;3.03;1.30;;;14.50;99.90;;;;;;4940362;29;20837;-83
2022/09/19 12:42:49;;;;;;;2.73;2.20;;;14.60;99.90;;;;;;4940215;29;20496;-83
2022/09/19 12:45:21;;;;;;;2.20;1.50;;;14.70;99.90;;;;;;4940419;29;20562;-84
2022/09/19 12:48:00;;;;;;;1.50;1.00;;;15.40;99.90;;;;;;4951212;29;20450;-84
2022/09/19 12:50:32;;;;;;;1.20;1.10;;;16.90;99.90;;;;;;4942172;29;20477;-84
2022/09/19 12:53:21;;;;;;;1.30;0.73;;;17.30;99.90;;;;;;4941159;29;20494;-84
2022/09/19 12:55:57;;;;;;;2.03;1.40;;;17.20;98.80;;;;;;4941508;29;20462;-84
2022/09/19 12:58:27;;;;;;;2.20;0.77;;;16.90;99.30;;;;;;4942525;29;20449;-84
2022/09/19 13:01:08;;;;;;;1.47;0.90;;;16.50;98.90;;;;;;4942238;29;20916;-84
2022/09/19 13:03:39;;;;;;;1.83;1.00;;;16.10;99.90;;;;;;4945081;29;21059;-84
2022/09/19 13:06:11;;;;;;;1.37;1.27;;;15.90;99.90;;;;;;4946561;29;20438;-84
2022/09/19 13:08:47;;;;;;;7.10;1.53;;;15.80;99.90;;;;;;4946196;29;20449;-84
2022/09/19 13:11:24;;;;;;;0.83;0.83;;;15.80;99.90;;;;;;4946349;29;20493;-84
2022/09/19 13:13:56;;;;;;;1.10;1.10;;;15.70;99.90;;;;;;4945897;29;20508;-84
2022/09/19 13:16:29;;;;;;;1.30;1.20;;;15.60;99.90;;;;;;4946146;29;20445;-84
2022/09/19 13:24:36;;;;;;;1.20;0.90;;;15.30;99.80;;;;;;4945753;29;20471;-84
2022/09/19 13:27:05;;;;;;;3.97;1.23;;;15.20;99.80;;;;;;4946145;29;20450;-84
2022/09/19 13:29:46;;;;;;;4.60;1.03;;;15.10;99.90;;;;;;4946320;29;20504;-84
2022/09/19 13:32:34;;;;;;;2.07;1.10;;;15.20;99.90;;;;;;4947141;29;20453;-84
2022/09/19 13:35:14;;;;;;;1.23;1.10;;;15.40;99.90;;;;;;4945982;29;20461;-84
2022/09/19 13:37:51;;;;;;;1.60;0.70;;;15.30;99.70;;;;;;4945662;29;20449;-84
2022/09/19 13:40:39;;;;;;;2.30;0.87;;;15.40;99.20;;;;;;4946107;29;20465;-84
2022/09/19 13:43:30;;;;;;;1.80;1.27;;;15.40;99.20;;;;;;4954593;29;20578;-84
2022/09/19 13:46:02;;;;;;;1.40;0.83;;;15.60;99.80;;;;;;4944892;29;20463;-84
2022/09/19 13:48:39;;;;;;;0.93;0.93;;;15.80;98.40;;;;;;4945749;29;20450;-84
2022/09/19 13:51:08;;;;;;;1.33;1.33;;;16.30;98.80;;;;;;4946281;29;20454;-84
2022/09/19 13:53:44;;;;;;;2.43;1.30;;;17.00;97.40;;;;;;4946873;29;20466;-84
2022/09/19 13:56:26;;;;;;;1.53;1.13;;;17.30;97.50;;;;;;4949614;29;20435;-84
2022/09/19 14:01:56;;;;;;;1.90;0.97;;;17.40;96.30;;;;;;5120178;27;21097;-84
2022/09/19 14:07:18;;;;;;;1.00;1.00;;;16.70;95.60;;;;;;5119085;28;20425;-84
2022/09/19 14:09:46;;;;;;;2.80;0.97;;;16.70;95.70;;;;;;5118427;28;20450;-83
2022/09/19 14:12:54;;;;;;;3.10;1.10;;;16.70;96.10;;;;;;5119225;28;20456;-84
2022/09/19 14:15:51;;;;;;;3.43;1.97;;;16.60;96.10;;;;;;5113278;28;20496;-83
2022/09/19 14:18:49;;;;;;;1.77;1.00;;;16.40;96.10;;;;;;5121108;28;20450;-82
2022/09/19 14:21:55;;;;;;;3.83;2.43;;;16.20;98.40;;;;;;5122457;28;20482;-81
2022/09/19 14:24:52;;;;;;;1.30;1.20;;;16.00;99.90;;;;;;5116648;28;20467;-82
2022/09/19 14:27:57;;;;;;;3.17;1.50;;;16.10;99.90;;;;;;5117237;28;20443;-82
2022/09/19 14:31:06;;;;;;;1.33;1.03;;;16.10;99.90;;;;;;5117341;28;20434;-82
2022/09/19 14:34:13;;;;;;;2.87;2.50;;;16.00;99.90;;;;;;5117420;28;20840;-82
2022/09/19 14:37:20;;;;;;;1.83;1.30;;;15.90;99.90;;;;;;5118192;28;20452;-80
2022/09/19 14:40:09;;;;;;;11.90;2.13;;;15.70;99.90;;;;;;5118830;28;20478;-82
2022/09/19 14:42:56;;;;;;;1.13;0.83;;;15.60;99.90;;;;;;5117409;28;20446;-82
2022/09/19 14:45:40;;;;;;;1.77;0.93;;;15.50;99.60;;;;;;5117332;28;20437;-82
2022/09/19 14:48:12;;;;;;;1.30;1.10;;;15.50;99.90;;;;;;5116733;28;20456;-82
2022/09/19 14:50:45;;;;;;;3.03;0.90;;;15.30;99.90;;;;;;5119283;28;20494;-82
2022/09/19 14:53:20;;;;;;;1.27;1.27;;;14.90;99.90;;;;;;5118572;28;20470;-82
2022/09/19 14:55:49;;;;;;;2.53;1.60;;;14.80;99.90;;;;;;5115952;28;20442;-83
2022/09/19 14:58:24;;;;;;;2.13;2.03;;;14.70;99.90;;;;;;5115901;28;20453;-82
2022/09/19 15:00:55;;;;;;;4.30;1.70;;;14.30;99.90;;;;;;5115886;28;20511;-83
2022/09/19 15:03:22;;;;;;;2.20;1.60;;;14.40;99.90;;;;;;5115185;28;20522;-83
2022/09/19 15:05:51;;;;;;;2.53;1.80;;;14.40;99.90;;;;;;5115867;28;20446;-82
2022/09/19 15:08:27;;;;;;;1.50;1.40;;;14.40;99.90;;;;;;5115575;28;20442;-83
2022/09/19 15:11:01;;;;;;;3.07;1.70;;;14.40;99.90;;;;;;5114918;28;20437;-82
2022/09/19 15:13:30;;;;;;;2.50;2.30;;;14.30;99.90;;;;;;5101425;28;20474;-82
2022/09/19 15:16:00;;;;;;;4.70;2.40;;;14.20;99.90;;;;;;5101206;28;20485;-81
2022/09/19 15:18:31;;;;;;;1.90;1.80;;;14.10;99.90;;;;;;5098976;28;20460;-81